createdAt,value
2019-04-21T00:00:21.096Z,9.60
2019-04-21T00:02:52.523Z,9.50
2019-04-21T00:05:40.011Z,9.40
2019-04-21T00:08:19.422Z,9.30
2019-04-21T00:10:48.658Z,9.30
2019-04-21T00:13:13.498Z,9.30
2019-04-21T00:15:36.775Z,9.30
2019-04-21T00:18:07.585Z,9.20
2019-04-21T00:20:41.428Z,9.20
2019-04-21T00:23:24.270Z,9.30
2019-04-21T00:25:47.884Z,9.20
2019-04-21T00:28:35.913Z,9.20
2019-04-21T00:31:00.542Z,9.10
2019-04-21T00:33:17.856Z,9.10
2019-04-21T00:35:52.611Z,9.10
2019-04-21T00:38:40.297Z,9.10
2019-04-21T00:41:08.876Z,9.10
2019-04-21T00:43:33.256Z,9.00
2019-04-21T00:46:02.240Z,9.00
2019-04-21T00:48:41.321Z,8.90
2019-04-21T00:51:25.808Z,8.90
2019-04-21T00:53:59.562Z,8.80
2019-04-21T00:56:21.993Z,8.80
2019-04-21T00:58:56.092Z,8.80
2019-04-21T01:01:28.040Z,8.70
2019-04-21T01:03:58.401Z,8.60
2019-04-21T01:06:33.476Z,8.70
2019-04-21T01:08:59.439Z,8.70
2019-04-21T01:11:44.219Z,8.70
2019-04-21T01:14:07.052Z,8.60
2019-04-21T01:16:35.026Z,8.70
2019-04-21T01:19:00.423Z,8.70
2019-04-21T01:21:14.463Z,8.70
2019-04-21T01:23:44.540Z,8.70
2019-04-21T01:26:29.029Z,8.70
2019-04-21T01:29:00.173Z,8.60
2019-04-21T01:31:34.852Z,8.60
2019-04-21T01:34:08.769Z,8.50
2019-04-21T01:36:38.844Z,8.40
2019-04-21T01:39:15.050Z,8.40
2019-04-21T01:41:46.232Z,8.30
2019-04-21T01:44:14.277Z,8.40
2019-04-21T01:46:40.685Z,8.20
2019-04-21T01:49:10.509Z,8.20
2019-04-21T01:52:03.146Z,8.20
2019-04-21T01:54:43.217Z,8.10
2019-04-21T01:57:17.549Z,8.00
2019-04-21T01:59:43.477Z,8.00
2019-04-21T02:02:24.200Z,8.00
2019-04-21T02:05:01.160Z,8.00
2019-04-21T02:07:27.355Z,8.00
2019-04-21T02:09:56.813Z,7.90
2019-04-21T02:12:30.213Z,7.90
2019-04-21T02:15:04.841Z,7.90
2019-04-21T02:17:28.082Z,7.90
2019-04-21T02:19:56.206Z,7.80
2019-04-21T02:22:56.020Z,7.80
2019-04-21T02:25:08.629Z,7.80
2019-04-21T02:27:36.263Z,7.80
2019-04-21T02:30:12.177Z,7.70
2019-04-21T02:32:51.026Z,7.60
2019-04-21T02:40:27.927Z,7.50
2019-04-21T02:45:23.454Z,7.40
2019-04-21T02:48:08.876Z,7.20
2019-04-21T02:50:26.100Z,7.10
2019-04-21T02:58:09.755Z,6.80
2019-04-21T03:03:37.778Z,6.80
2019-04-21T03:06:18.643Z,6.90
2019-04-21T03:11:14.763Z,6.90
2019-04-21T03:13:56.768Z,6.90
2019-04-21T03:16:23.053Z,6.90
2019-04-21T03:18:56.702Z,6.90
2019-04-21T03:21:22.085Z,7.00
2019-04-21T03:26:55.888Z,6.90
2019-04-21T03:31:49.459Z,6.90
2019-04-21T03:36:49.848Z,6.80
2019-04-21T03:39:18.321Z,6.70
2019-04-21T03:41:38.004Z,6.70
2019-04-21T03:44:09.864Z,6.70
2019-04-21T03:46:41.678Z,6.70
2019-04-21T03:49:32.583Z,6.70
2019-04-21T03:54:09.313Z,6.70
2019-04-21T03:57:06.042Z,6.70
2019-04-21T03:59:12.700Z,6.70
2019-04-21T04:02:24.669Z,6.70
2019-04-21T04:05:08.970Z,6.70
2019-04-21T04:07:59.285Z,6.70
2019-04-21T04:10:28.503Z,6.60
2019-04-21T04:12:50.433Z,6.60
2019-04-21T04:15:31.219Z,6.60
2019-04-21T04:17:56.446Z,6.60
2019-04-21T04:20:28.628Z,6.60
2019-04-21T04:23:07.871Z,6.60
2019-04-21T04:25:27.816Z,6.60
2019-04-21T04:30:39.578Z,6.50
2019-04-21T04:32:56.592Z,6.50
2019-04-21T04:35:46.617Z,6.50
2019-04-21T04:38:15.433Z,6.50
2019-04-21T04:40:51.710Z,6.50
2019-04-21T04:43:19.255Z,6.60
2019-04-21T04:46:00.491Z,6.60
2019-04-21T04:48:19.711Z,6.60
2019-04-21T04:50:55.478Z,6.70
2019-04-21T04:55:56.221Z,6.80
2019-04-21T04:58:29.683Z,6.90
2019-04-21T05:03:37.347Z,7.10
2019-04-21T05:11:39.872Z,7.20
2019-04-21T05:16:46.957Z,7.40
2019-04-21T05:19:10.069Z,7.50
2019-04-21T05:21:34.841Z,7.50
2019-04-21T05:24:08.084Z,7.70
2019-04-21T05:26:22.030Z,7.80
2019-04-21T05:28:52.673Z,8.00
2019-04-21T05:31:46.377Z,8.00
2019-04-21T05:37:09.602Z,8.30
2019-04-21T05:39:51.117Z,8.40
2019-04-21T05:42:11.000Z,8.60
2019-04-21T05:45:01.650Z,8.70
2019-04-21T05:47:37.494Z,8.90
2019-04-21T05:50:04.670Z,9.00
2019-04-21T05:52:32.967Z,9.20
2019-04-21T05:55:10.975Z,9.40
2019-04-21T05:57:38.129Z,9.50
2019-04-21T06:00:15.629Z,9.60
2019-04-21T06:02:55.225Z,9.80
2019-04-21T06:05:20.667Z,10.00
2019-04-21T06:07:48.677Z,10.20
2019-04-21T06:10:20.528Z,10.40
2019-04-21T06:12:59.447Z,10.50
2019-04-21T06:15:34.946Z,10.70
2019-04-21T06:17:57.844Z,10.80
2019-04-21T06:20:27.423Z,10.90
2019-04-21T06:23:00.954Z,11.00
2019-04-21T06:25:54.550Z,11.20
2019-04-21T06:28:04.649Z,11.30
2019-04-21T06:30:45.493Z,11.40
2019-04-21T06:33:01.856Z,11.50
2019-04-21T06:41:33.978Z,12.20
2019-04-21T06:49:18.777Z,12.70
2019-04-21T06:51:58.268Z,12.80
2019-04-21T06:54:30.607Z,12.80
2019-04-21T06:56:46.474Z,12.80
2019-04-21T06:59:12.036Z,12.90
2019-04-21T07:01:48.725Z,12.90
2019-04-21T07:04:25.238Z,12.90
2019-04-21T07:06:53.701Z,13.00
2019-04-21T07:11:53.850Z,13.20
2019-04-21T07:16:57.859Z,13.40
2019-04-21T07:19:30.700Z,13.60
2019-04-21T07:21:55.627Z,13.60
2019-04-21T07:24:33.367Z,13.80
2019-04-21T07:27:02.404Z,14.00
2019-04-21T07:29:34.473Z,14.10
2019-04-21T07:32:04.488Z,14.20
2019-04-21T07:37:20.032Z,14.50
2019-04-21T07:39:32.571Z,14.60
2019-04-21T07:42:04.933Z,14.70
2019-04-21T07:44:37.898Z,14.80
2019-04-21T07:47:11.950Z,14.80
2019-04-21T07:49:57.464Z,14.90
2019-04-21T07:52:49.360Z,15.10
2019-04-21T07:57:31.811Z,15.40
2019-04-21T08:02:40.734Z,15.80
2019-04-21T08:05:13.577Z,15.90
2019-04-21T08:10:13.889Z,16.20
2019-04-21T08:12:44.739Z,16.40
2019-04-21T08:15:20.094Z,16.50
2019-04-21T08:17:47.169Z,16.60
2019-04-21T08:20:18.427Z,16.80
2019-04-21T08:22:52.409Z,16.90
2019-04-21T08:25:19.488Z,17.10
2019-04-21T08:27:56.884Z,17.20
2019-04-21T08:30:27.429Z,17.40
2019-04-21T08:33:08.817Z,17.50
2019-04-21T08:37:55.618Z,17.80
2019-04-21T08:40:40.739Z,17.80
2019-04-21T08:42:59.825Z,18.00
2019-04-21T08:45:36.172Z,18.20
2019-04-21T08:48:04.257Z,18.30
2019-04-21T08:50:31.243Z,18.40
2019-04-21T08:53:08.082Z,18.50
2019-04-21T08:55:58.082Z,18.60
2019-04-21T08:58:39.490Z,18.80
2019-04-21T09:01:18.041Z,18.90
2019-04-21T09:03:58.794Z,18.80
2019-04-21T09:06:52.596Z,19.00
2019-04-21T09:09:03.660Z,19.10
2019-04-21T09:11:34.882Z,19.20
2019-04-21T09:14:07.726Z,19.30
2019-04-21T09:16:36.755Z,19.60
2019-04-21T09:19:04.411Z,19.70
2019-04-21T09:21:44.998Z,19.90
2019-04-21T09:24:18.901Z,20.00
2019-04-21T09:26:42.918Z,19.90
2019-04-21T09:29:07.862Z,20.10
2019-04-21T09:31:33.784Z,20.20
2019-04-21T09:34:03.180Z,20.30
2019-04-21T09:36:41.239Z,20.40
2019-04-21T09:39:09.178Z,20.60
2019-04-21T09:41:38.228Z,20.50
2019-04-21T09:44:13.961Z,20.70
2019-04-21T09:46:47.695Z,21.00
2019-04-21T09:49:15.702Z,21.20
2019-04-21T09:51:43.798Z,21.30
2019-04-21T09:54:20.468Z,21.30
2019-04-21T09:56:52.441Z,21.20
2019-04-21T09:59:23.579Z,21.20
2019-04-21T10:02:01.830Z,21.40
2019-04-21T10:04:19.190Z,21.50
2019-04-21T10:06:49.739Z,21.30
2019-04-21T10:09:21.612Z,21.30
2019-04-21T10:11:50.969Z,21.00
2019-04-21T10:14:20.568Z,21.50
2019-04-21T10:17:08.345Z,21.90
2019-04-21T10:19:39.741Z,22.20
2019-04-21T10:22:10.548Z,22.20
2019-04-21T10:24:40.535Z,22.20
2019-04-21T10:27:12.190Z,22.30
2019-04-21T10:29:44.101Z,22.50
2019-04-21T10:32:13.391Z,22.60
2019-04-21T10:34:43.365Z,22.60
2019-04-21T10:37:13.324Z,22.40
2019-04-21T10:39:42.940Z,22.50
2019-04-21T10:42:13.179Z,22.50
2019-04-21T10:44:43.215Z,22.80
2019-04-21T10:47:14.386Z,22.80
2019-04-21T10:49:44.820Z,22.50
2019-04-21T10:52:22.853Z,22.80
2019-04-21T10:55:11.324Z,23.00
2019-04-21T10:57:30.519Z,23.10
2019-04-21T11:00:01.368Z,23.20
2019-04-21T11:02:41.159Z,22.80
2019-04-21T11:05:12.516Z,22.40
2019-04-21T11:08:01.177Z,22.10
2019-04-21T11:10:22.169Z,22.20
2019-04-21T11:12:52.672Z,22.50
2019-04-21T11:15:23.340Z,22.40
2019-04-21T11:17:54.505Z,22.80
2019-04-21T11:20:24.753Z,23.20
2019-04-21T11:22:55.576Z,23.50
2019-04-21T11:25:26.237Z,23.80
2019-04-21T11:27:56.016Z,24.00
2019-04-21T11:30:25.669Z,24.00
2019-04-21T11:32:55.353Z,24.00
2019-04-21T11:35:25.505Z,24.00
2019-04-21T11:38:04.622Z,24.00
2019-04-21T11:40:27.681Z,23.80
2019-04-21T11:42:58.063Z,24.00
2019-04-21T11:45:30.570Z,24.10
2019-04-21T11:48:06.125Z,24.40
2019-04-21T11:50:37.009Z,24.80
2019-04-21T11:53:07.094Z,24.60
2019-04-21T11:55:41.688Z,24.30
2019-04-21T11:58:09.965Z,24.60
2019-04-21T12:00:39.897Z,24.90
2019-04-21T12:03:11.977Z,25.00
2019-04-21T12:05:41.442Z,25.20
2019-04-21T12:08:23.027Z,25.40
2019-04-21T12:10:42.416Z,25.30
2019-04-21T12:13:12.127Z,25.30
2019-04-21T12:15:42.970Z,25.80
2019-04-21T12:18:12.673Z,26.10
2019-04-21T12:20:43.122Z,26.60
2019-04-21T12:23:14.204Z,27.00
2019-04-21T12:25:45.551Z,26.30
2019-04-21T12:28:15.990Z,26.60
2019-04-21T12:30:49.516Z,26.60
2019-04-21T12:33:24.450Z,27.10
2019-04-21T12:35:54.004Z,27.50
2019-04-21T12:38:36.917Z,27.50
2019-04-21T12:40:54.892Z,28.00
2019-04-21T12:43:24.525Z,27.40
2019-04-21T12:45:54.159Z,27.30
2019-04-21T12:48:24.060Z,27.60
2019-04-21T12:50:54.248Z,27.80
2019-04-21T12:53:23.932Z,27.70
2019-04-21T12:55:53.796Z,28.20
2019-04-21T12:58:23.724Z,27.70
2019-04-21T13:00:54.629Z,28.00
2019-04-21T13:03:25.490Z,28.50
2019-04-21T13:05:55.899Z,28.80
2019-04-21T13:08:25.630Z,29.00
2019-04-21T13:10:56.075Z,29.00
2019-04-21T13:13:26.181Z,28.00
2019-04-21T13:15:56.005Z,28.10
2019-04-21T13:18:26.929Z,27.70
2019-04-21T13:20:59.275Z,27.80
2019-04-21T13:23:29.165Z,28.20
2019-04-21T13:26:01.211Z,28.30
2019-04-21T13:28:30.441Z,28.10
2019-04-21T13:31:00.330Z,28.30
2019-04-21T13:33:30.951Z,28.40
2019-04-21T13:36:00.707Z,28.30
2019-04-21T13:38:37.689Z,28.50
2019-04-21T13:41:25.884Z,28.50
2019-04-21T13:43:45.300Z,28.50
2019-04-21T13:46:15.496Z,28.80
2019-04-21T13:48:46.423Z,28.50
2019-04-21T13:51:17.469Z,28.50
2019-04-21T13:53:47.064Z,28.60
2019-04-21T13:56:16.602Z,28.20
2019-04-21T13:58:46.367Z,28.80
2019-04-21T14:01:16.170Z,28.90
2019-04-21T14:03:47.137Z,29.10
2019-04-21T14:06:18.320Z,29.10
2019-04-21T14:08:52.659Z,29.10
2019-04-21T14:11:23.070Z,29.20
2019-04-21T14:13:54.372Z,29.40
2019-04-21T14:16:24.506Z,29.20
2019-04-21T14:18:55.126Z,29.20
2019-04-21T14:21:25.076Z,29.70
2019-04-21T14:23:56.370Z,29.70
2019-04-21T14:26:27.033Z,29.90
2019-04-21T14:28:56.840Z,29.80
2019-04-21T14:31:26.484Z,29.80
2019-04-21T14:33:58.087Z,30.40
2019-04-21T14:36:28.693Z,30.00
2019-04-21T14:38:58.709Z,29.70
2019-04-21T14:41:28.557Z,29.60
2019-04-21T14:43:58.509Z,29.70
2019-04-21T14:46:39.553Z,30.00
2019-04-21T14:49:24.027Z,30.00
2019-04-21T14:52:07.541Z,29.70
2019-04-21T14:54:48.950Z,29.70
2019-04-21T14:57:18.962Z,30.00
2019-04-21T14:59:49.045Z,29.80
2019-04-21T15:02:20.140Z,29.80
2019-04-21T15:04:51.226Z,29.70
2019-04-21T15:15:46.060Z,30.30
2019-04-21T15:18:16.838Z,29.90
2019-04-21T15:20:48.626Z,29.80
2019-04-21T15:23:18.220Z,29.30
2019-04-21T15:25:48.136Z,29.00
2019-04-21T15:28:17.877Z,28.90
2019-04-21T15:30:47.581Z,28.60
2019-04-21T15:33:18.224Z,28.80
2019-04-21T15:35:49.079Z,29.20
2019-04-21T15:38:20.121Z,29.20
2019-04-21T15:40:55.477Z,29.10
2019-04-21T15:43:22.363Z,28.90
2019-04-21T15:45:52.908Z,28.40
2019-04-21T15:48:23.947Z,28.00
2019-04-21T15:50:54.617Z,27.70
2019-04-21T15:53:25.746Z,27.70
2019-04-21T15:55:59.527Z,27.40
2019-04-21T15:58:54.585Z,27.40
2019-04-21T16:01:30.245Z,27.40
2019-04-21T16:04:00.964Z,27.30
2019-04-21T16:06:31.915Z,27.30
2019-04-21T16:09:04.348Z,27.30
2019-04-21T16:11:33.672Z,27.40
2019-04-21T16:14:05.774Z,27.60
2019-04-21T16:16:36.177Z,27.60
2019-04-21T16:19:06.245Z,28.10
2019-04-21T16:21:40.080Z,28.30
2019-04-21T16:24:08.702Z,28.20
2019-04-21T16:26:40.416Z,27.90
2019-04-21T16:29:11.279Z,27.50
2019-04-21T16:40:59.760Z,27.30
2019-04-21T16:43:26.971Z,27.10
2019-04-21T16:45:57.151Z,26.90
2019-04-21T16:48:27.348Z,26.80
2019-04-21T16:50:57.578Z,26.30
2019-04-21T16:53:52.127Z,25.80
2019-04-21T16:56:26.898Z,25.30
2019-04-21T16:59:06.404Z,25.00
2019-04-21T17:01:36.458Z,24.70
2019-04-21T17:04:06.650Z,24.30
2019-04-21T17:06:38.288Z,23.90
2019-04-21T17:09:08.622Z,23.50
2019-04-21T17:11:40.128Z,23.20
2019-04-21T17:14:27.276Z,22.90
2019-04-21T17:17:02.842Z,22.70
2019-04-21T17:19:20.183Z,22.60
2019-04-21T17:21:43.727Z,22.40
2019-04-21T17:24:14.585Z,22.10
2019-04-21T17:26:46.056Z,21.80
2019-04-21T17:29:16.810Z,21.40
2019-04-21T17:31:47.692Z,21.00
2019-04-21T17:34:21.586Z,20.70
2019-04-21T17:36:48.865Z,20.30
2019-04-21T17:39:18.801Z,20.00
2019-04-21T17:42:00.375Z,19.70
2019-04-21T17:44:21.333Z,19.40
2019-04-21T17:46:56.341Z,19.10
2019-04-21T17:49:23.286Z,19.00
2019-04-21T17:52:21.353Z,18.90
2019-04-21T17:55:10.280Z,18.70
2019-04-21T17:57:53.009Z,18.60
2019-04-21T18:00:43.285Z,18.50
2019-04-21T18:03:01.773Z,18.30
2019-04-21T18:05:31.917Z,18.00
2019-04-21T18:07:55.993Z,17.90
2019-04-21T18:10:32.793Z,17.70
2019-04-21T18:12:55.508Z,17.60
2019-04-21T18:15:36.347Z,17.50
2019-04-21T18:17:48.184Z,17.40
2019-04-21T18:20:23.817Z,17.20
2019-04-21T18:23:22.803Z,17.10
2019-04-21T18:25:52.587Z,16.90
2019-04-21T18:28:16.578Z,16.70
2019-04-21T18:30:56.299Z,16.50
2019-04-21T18:33:31.751Z,16.40
2019-04-21T18:36:33.019Z,16.20
2019-04-21T18:39:37.885Z,16.10
2019-04-21T18:42:17.531Z,16.00
2019-04-21T18:48:24.599Z,15.80
2019-04-21T18:51:02.992Z,15.80
2019-04-21T18:53:44.927Z,16.00
2019-04-21T18:56:06.521Z,16.10
2019-04-21T18:58:35.982Z,16.10
2019-04-21T19:01:12.657Z,16.20
2019-04-21T19:03:42.999Z,16.10
2019-04-21T19:06:14.569Z,16.00
2019-04-21T19:09:01.190Z,15.90
2019-04-21T19:11:28.179Z,15.90
2019-04-21T19:16:47.269Z,15.90
2019-04-21T19:21:49.969Z,15.50
2019-04-21T19:24:24.262Z,15.40
2019-04-21T19:27:01.180Z,15.30
2019-04-21T19:29:35.952Z,15.20
2019-04-21T19:31:59.440Z,15.10
2019-04-21T19:34:14.342Z,14.80
2019-04-21T19:36:48.807Z,14.50
2019-04-21T19:39:18.639Z,14.30
2019-04-21T19:41:56.141Z,14.20
2019-04-21T19:44:34.001Z,14.10
2019-04-21T19:47:05.188Z,14.00
2019-04-21T19:49:38.261Z,13.80
2019-04-21T19:51:57.519Z,13.60
2019-04-21T19:54:27.714Z,13.60
2019-04-21T19:56:53.396Z,13.50
2019-04-21T19:59:34.043Z,13.30
2019-04-21T20:01:56.086Z,13.50
2019-04-21T20:04:34.341Z,13.80
2019-04-21T20:07:05.300Z,13.90
2019-04-21T20:09:45.126Z,14.00
2019-04-21T20:12:18.921Z,14.00
2019-04-21T20:14:55.767Z,14.00
2019-04-21T20:17:14.907Z,14.10
2019-04-21T20:19:34.358Z,14.00
2019-04-21T20:22:05.302Z,14.10
2019-04-21T20:24:37.805Z,13.90
2019-04-21T20:27:14.122Z,13.80
2019-04-21T20:29:57.986Z,13.70
2019-04-21T20:32:31.702Z,13.60
2019-04-21T20:35:00.907Z,13.50
2019-04-21T20:37:29.665Z,13.40
2019-04-21T20:39:50.252Z,13.40
2019-04-21T20:42:28.015Z,13.30
2019-04-21T20:45:16.059Z,13.30
2019-04-21T20:47:27.241Z,13.30
2019-04-21T20:50:03.314Z,13.40
2019-04-21T20:52:43.355Z,13.30
2019-04-21T20:55:07.714Z,13.20
2019-04-21T20:57:35.333Z,13.20
2019-04-21T21:00:12.352Z,13.10
2019-04-21T21:02:48.426Z,13.10
2019-04-21T21:05:14.311Z,13.10
2019-04-21T21:07:50.468Z,13.00
2019-04-21T21:10:18.141Z,13.00
2019-04-21T21:12:57.333Z,12.90
2019-04-21T21:15:17.111Z,12.90
2019-04-21T21:18:04.418Z,12.90
2019-04-21T21:20:24.575Z,12.80
2019-04-21T21:22:53.287Z,12.60
2019-04-21T21:25:38.358Z,12.50
2019-04-21T21:27:53.190Z,12.50
2019-04-21T21:30:29.035Z,12.40
2019-04-21T21:33:00.834Z,12.40
2019-04-21T21:35:34.159Z,12.30
2019-04-21T21:38:06.685Z,12.30
2019-04-21T21:40:36.647Z,12.10
2019-04-21T21:42:51.195Z,12.10
2019-04-21T21:45:24.886Z,12.10
2019-04-21T21:48:11.518Z,12.00
2019-04-21T21:50:39.925Z,12.00
2019-04-21T21:53:04.287Z,12.00
2019-04-21T21:55:27.789Z,11.90
2019-04-21T21:58:01.904Z,11.90
2019-04-21T22:00:30.225Z,11.80
2019-04-21T22:03:12.014Z,11.80
2019-04-21T22:05:42.384Z,11.80
2019-04-21T22:08:04.784Z,11.80
2019-04-21T22:10:34.976Z,11.70
2019-04-21T22:13:09.669Z,11.70
2019-04-21T22:15:37.566Z,11.60
2019-04-21T22:18:25.834Z,11.70
2019-04-21T22:20:53.787Z,11.50
2019-04-21T22:23:23.326Z,11.50
2019-04-21T22:25:44.015Z,11.40
2019-04-21T22:28:13.895Z,11.30
2019-04-21T22:30:47.417Z,11.30
2019-04-21T22:33:18.097Z,11.20
2019-04-21T22:35:53.208Z,11.20
2019-04-21T22:38:35.218Z,11.20
2019-04-21T22:41:00.366Z,11.10
2019-04-21T22:43:31.754Z,11.10
2019-04-21T22:45:53.584Z,11.10
2019-04-21T22:48:27.261Z,11.10
2019-04-21T22:50:56.148Z,11.00
2019-04-21T22:53:29.154Z,11.00
2019-04-21T22:56:05.752Z,11.00
2019-04-21T22:58:33.518Z,11.00
2019-04-21T23:01:03.368Z,11.00
2019-04-21T23:03:32.575Z,10.90
2019-04-21T23:06:09.955Z,10.90
2019-04-21T23:08:40.067Z,10.80
2019-04-21T23:11:10.906Z,10.80
2019-04-21T23:13:38.620Z,10.70
2019-04-21T23:16:09.877Z,10.70
2019-04-21T23:18:55.492Z,10.70
2019-04-21T23:21:24.706Z,10.60
2019-04-21T23:24:05.838Z,10.40
2019-04-21T23:26:33.128Z,10.30
2019-04-21T23:29:07.582Z,10.30
2019-04-21T23:31:40.363Z,10.30
2019-04-21T23:33:50.472Z,10.20
2019-04-21T23:36:25.900Z,10.20
2019-04-21T23:38:53.738Z,10.20
2019-04-21T23:41:26.013Z,10.20
2019-04-21T23:44:00.396Z,10.20
2019-04-21T23:46:29.854Z,10.20
2019-04-21T23:49:12.432Z,10.20
2019-04-21T23:51:41.001Z,10.10
2019-04-21T23:53:59.878Z,10.00
2019-04-21T23:56:34.061Z,9.90
2019-04-21T23:59:04.142Z,9.80
